Kinghurst, Minnesota
Current Conditions -  °F | °C
As of 11:13 AM on Friday 24 Oct 2014 (Local Time) from KFOZ Reporting Station
Clear Clear  
Wind Chill: 61°   Ceiling: Unl
Heat Index: 61°   Visibility: 10mi
Dew Point: 45°   Wind: 8mph
Humidity: 55%   Direction: 200°SSW
Pressure: 29.79"   Gusts: NA
Location:  47.8312°N, 94.1459°W
Report Text: KFOZ 241613Z AUTO 20007KT 10SM CLR 16/07 A2979 RMK AO2
Loading
Personal Weather Stations






























Interactive Weather Map
Tropical Storm Tracking
New forecast layout! Learn more

10-Day Weather Forecast

Advertisements
Track Severe Weather on mobile